Riviera Beach, FL (33404)

12:35 PM EST on February 10, 2016 (GMT -0500)
Singer Island | | Change Station
CLOSE
Current Station
Personal Weather Station
Location: Singer Island, FL
Elevation: 23 ft
Nearby Weather Stations

Elev 23 ft 26.79 °N, 80.04 °W | Updated 1 minute ago

Mostly Cloudy
Mostly Cloudy
61.7 °F
Feels Like 61.7 °F
N
3.4
Wind Variable Wind from North

Today
High -- | Low -- °F
--% Chance of Precip.
Yesterday
High -- | Low -- °F
Precip. -- in
Pressure 30.25 in
Visibility 10.0 miles
Clouds Few 5000 ft
Mostly Cloudy 25000 ft
Dew Point 33 °F
Humidity 34%
Rainfall Not available.
Snow Depth Not available.
7:00 AM 6:08 PM
Waxing Crescent, 6% visible
METAR KPBI 101653Z 30009KT 10SM FEW050 BKN250 14/M01 A3025 RMK AO2 SLP244 T01441011
Pressure 30.25 in
Visibility 10.0 miles
Clouds Few 5000 ft
Mostly Cloudy 25000 ft
Dew Point 33 °F
Humidity 34%
Rainfall Not available.
Snow Depth Not available.
7:00 AM 6:08 PM
Waxing Crescent, 6% visible
METAR KPBI 101653Z 30009KT 10SM FEW050 BKN250 14/M01 A3025 RMK AO2 SLP244 T01441011

10-Day Weather Forecast

Almanac

Astronomy

Feb. 10, 2016 Rise Set
Actual Time
Civil Twilight
Nautical Twilight
Astronomical Twilight
Moon
Length of Visible Light
Length of Day
Tomorrow will be .
, % of the Moon is Illuminated

Today's Extremes

State Highs State Lows

Community

WunderPhotos

Upload Photos

1,891,898 photos uploaded!

WunderBlog® & News

Nearby

Air Quality

  Air Quality AQ Index Pollutant
Not available.

Snow Depth

Station Depth Elevation

Earthquake Activity

City Distance Mag. Time & Date
Minimum magnitude displayed is 2.5.

Coastal Water Temperatures

Place Temperature

Stations

Nearby Weather Stations

Station Location Temp. Windchill Dew Point Humidity Wind Precip. Elev Updated Type
                   

Watches & Warnings

There are currently no watches in effect.